Time;durP1;ratioP1;P1;durP2;ratioP2;P2;SDS_P1;SDS_P2;PMS_P1;PMS_P2;Temp;Humidity;BMP_temperature;BMP_pressure;BME280_temperature;BME280_humidity;BME280_pressure;Samples;Min_cycle;Max_cycle;Signal;HPM_P1;HPM_P2
2021/07/27 00:00:33;;;;;;;23.10;12.50;;;19.50;99.90;;;;;;5059042;28;20171;-81
2021/07/27 00:03:00;;;;;;;24.58;14.27;;;19.30;99.90;;;;;;5092410;28;20166;-81
2021/07/27 00:05:26;;;;;;;18.42;13.52;;;19.30;99.90;;;;;;5073887;28;20185;-81
2021/07/27 00:07:52;;;;;;;22.17;14.48;;;19.30;99.90;;;;;;5091465;28;20188;-81
2021/07/27 00:10:17;;;;;;;20.60;14.70;;;19.20;99.90;;;;;;5090003;28;20182;-81
2021/07/27 00:12:45;;;;;;;23.45;15.90;;;19.20;99.90;;;;;;5072625;28;20649;-81
2021/07/27 00:15:11;;;;;;;17.13;14.90;;;19.10;99.90;;;;;;5094246;28;20229;-81
2021/07/27 00:17:37;;;;;;;20.52;15.93;;;19.00;99.90;;;;;;5078619;28;20182;-81
2021/07/27 00:20:03;;;;;;;21.05;16.60;;;18.90;99.90;;;;;;5068790;28;20166;-81
2021/07/27 00:22:28;;;;;;;27.13;16.77;;;18.80;99.90;;;;;;5095041;28;20182;-81
2021/07/27 00:24:54;;;;;;;24.25;16.67;;;18.70;99.90;;;;;;5080257;28;20628;-81
2021/07/27 00:27:20;;;;;;;30.83;17.55;;;18.70;99.90;;;;;;5041792;28;20178;-82
2021/07/27 00:29:46;;;;;;;23.60;17.00;;;18.60;99.90;;;;;;5058149;28;20174;-82
2021/07/27 00:32:11;;;;;;;24.30;16.40;;;18.60;99.90;;;;;;5093300;28;20174;-81
2021/07/27 00:34:37;;;;;;;23.10;17.45;;;18.50;99.90;;;;;;5086925;28;20273;-76
2021/07/27 00:37:03;;;;;;;25.85;17.60;;;18.50;99.90;;;;;;5095345;28;20182;-76
2021/07/27 00:39:29;;;;;;;29.75;19.55;;;18.40;99.90;;;;;;5069958;28;20175;-76
2021/07/27 00:41:55;;;;;;;31.73;19.20;;;18.40;99.90;;;;;;5087044;28;20219;-76
2021/07/27 00:44:20;;;;;;;33.47;19.63;;;18.50;99.90;;;;;;5061368;28;20189;-76
2021/07/27 00:46:46;;;;;;;25.05;18.77;;;18.50;99.90;;;;;;5096247;28;20196;-76
2021/07/27 00:49:12;;;;;;;35.15;19.27;;;18.50;99.90;;;;;;5096267;28;20526;-76
2021/07/27 00:51:39;;;;;;;34.95;21.83;;;18.40;99.90;;;;;;5085979;28;20178;-76
2021/07/27 00:54:06;;;;;;;36.88;21.30;;;18.40;99.90;;;;;;5065680;28;20256;-76
2021/07/27 00:56:33;;;;;;;41.88;21.83;;;18.30;99.90;;;;;;5078132;28;20174;-76
2021/07/27 00:58:59;;;;;;;35.38;22.13;;;18.30;99.90;;;;;;5096150;28;20190;-77
2021/07/27 01:01:25;;;;;;;37.83;22.05;;;18.20;99.90;;;;;;5069144;28;20613;-76
2021/07/27 01:03:50;;;;;;;37.58;22.98;;;18.20;99.90;;;;;;5087589;28;20185;-76
2021/07/27 01:06:16;;;;;;;38.67;22.65;;;18.20;99.90;;;;;;5095857;28;20174;-76
2021/07/27 01:08:42;;;;;;;35.53;21.83;;;18.10;99.90;;;;;;5095101;28;20580;-77
2021/07/27 01:11:08;;;;;;;31.27;22.00;;;18.00;99.90;;;;;;5075553;28;20221;-76
2021/07/27 01:13:34;;;;;;;29.95;21.10;;;18.00;99.90;;;;;;5068978;28;20178;-76
2021/07/27 01:16:04;;;;;;;36.85;21.85;;;18.00;99.90;;;;;;5095299;28;20201;-76
2021/07/27 01:18:35;;;;;;;36.40;23.42;;;18.00;99.90;;;;;;5095727;28;20162;-76
2021/07/27 01:40:40;;;;;;;43.45;24.38;;;18.20;99.90;;;;;;5045043;28;20190;-76
2021/07/27 01:43:08;;;;;;;44.08;23.75;;;18.20;99.90;;;;;;5081707;28;20190;-76
2021/07/27 01:45:33;;;;;;;44.95;23.58;;;18.10;99.90;;;;;;5095103;28;20678;-76
2021/07/27 01:47:59;;;;;;;35.53;23.30;;;18.10;99.90;;;;;;5094675;28;20179;-76
2021/07/27 01:50:27;;;;;;;42.50;24.05;;;18.10;99.90;;;;;;5095110;28;20510;-76
2021/07/27 01:52:59;;;;;;;40.85;23.75;;;18.00;99.90;;;;;;5069142;28;20266;-76
2021/07/27 01:55:32;;;;;;;34.90;23.05;;;18.00;99.90;;;;;;5056742;28;20198;-75
2021/07/27 01:57:58;;;;;;;37.88;23.38;;;18.00;99.90;;;;;;5080794;28;20185;-77
2021/07/27 02:00:25;;;;;;;31.85;22.17;;;17.90;99.90;;;;;;5094635;28;20574;-76
2021/07/27 02:02:51;;;;;;;35.08;22.30;;;17.80;99.90;;;;;;5087305;28;20636;-76
2021/07/27 02:05:16;;;;;;;37.25;23.65;;;17.90;99.90;;;;;;5094023;28;20214;-76
2021/07/27 02:07:55;;;;;;;37.47;23.52;;;17.90;99.90;;;;;;5076371;28;20173;-76
2021/07/27 02:10:22;;;;;;;37.05;22.70;;;17.80;99.90;;;;;;5094688;28;20209;-76
2021/07/27 02:12:53;;;;;;;35.97;22.90;;;17.80;99.90;;;;;;5089117;28;20178;-76
2021/07/27 02:15:20;;;;;;;49.05;24.90;;;17.90;99.90;;;;;;5094545;28;20363;-76
2021/07/27 02:17:47;;;;;;;46.80;25.75;;;17.90;99.90;;;;;;5094177;28;20170;-77
2021/07/27 02:20:14;;;;;;;38.40;22.38;;;18.00;99.90;;;;;;5094347;28;20615;-76
2021/07/27 02:22:40;;;;;;;45.15;23.83;;;17.90;99.90;;;;;;5074729;28;20177;-75
2021/07/27 02:25:07;;;;;;;38.65;22.35;;;17.80;99.90;;;;;;5094385;28;20170;-76
2021/07/27 02:27:33;;;;;;;35.20;21.92;;;17.80;99.90;;;;;;5091838;28;20190;-76
2021/07/27 02:30:03;;;;;;;34.22;22.42;;;17.80;99.90;;;;;;5055978;28;20213;-77
2021/07/27 02:32:29;;;;;;;37.95;23.38;;;17.80;99.90;;;;;;5081437;28;20212;-76
2021/07/27 02:34:55;;;;;;;34.78;22.63;;;17.80;99.90;;;;;;5075854;28;20647;-76
2021/07/27 02:37:20;;;;;;;47.65;24.63;;;17.90;99.90;;;;;;5075546;28;20181;-76
2021/07/27 02:39:46;;;;;;;36.33;22.35;;;17.90;99.90;;;;;;5073895;28;20171;-76
2021/07/27 02:42:12;;;;;;;37.17;23.50;;;17.90;99.90;;;;;;5057175;28;20513;-76
2021/07/27 02:44:37;;;;;;;39.08;23.35;;;17.90;99.90;;;;;;5055654;28;20594;-76
2021/07/27 02:47:03;;;;;;;35.90;22.67;;;18.00;99.90;;;;;;5073635;28;20163;-76
2021/07/27 02:49:28;;;;;;;34.92;23.27;;;18.00;99.90;;;;;;5073044;28;20178;-76
2021/07/27 02:51:56;;;;;;;39.83;23.30;;;18.00;99.90;;;;;;5092216;28;20197;-76
2021/07/27 02:54:22;;;;;;;39.63;24.77;;;18.10;99.90;;;;;;5093808;28;20722;-76
2021/07/27 02:56:47;;;;;;;41.00;24.40;;;18.00;99.90;;;;;;5093812;28;20178;-77
2021/07/27 02:59:13;;;;;;;45.22;23.67;;;18.00;99.90;;;;;;5093495;28;20276;-76
2021/07/27 03:01:39;;;;;;;51.17;25.05;;;18.00;99.90;;;;;;5091663;28;20185;-76
2021/07/27 03:04:04;;;;;;;44.63;22.92;;;18.00;99.90;;;;;;5092176;28;20212;-76
2021/07/27 03:06:31;;;;;;;41.63;23.88;;;18.00;99.90;;;;;;5058728;28;20170;-76
2021/07/27 03:11:23;;;;;;;39.47;22.45;;;18.00;99.90;;;;;;5075770;28;20214;-76
2021/07/27 03:13:49;;;;;;;36.70;22.80;;;18.00;99.90;;;;;;5073540;28;20534;-76
2021/07/27 03:16:20;;;;;;;33.35;22.83;;;18.00;99.90;;;;;;5093447;28;20627;-76
2021/07/27 03:18:49;;;;;;;37.67;23.83;;;18.00;99.90;;;;;;5082399;28;20167;-76
2021/07/27 03:21:17;;;;;;;41.00;23.20;;;18.10;99.90;;;;;;5074426;28;20177;-76
2021/07/27 03:23:46;;;;;;;42.20;24.13;;;18.00;99.90;;;;;;5091991;28;20223;-76
2021/07/27 03:26:12;;;;;;;37.55;22.23;;;18.10;99.90;;;;;;5073658;28;20175;-76
2021/07/27 03:28:39;;;;;;;36.72;22.90;;;18.20;99.90;;;;;;5073257;28;20639;-76
2021/07/27 03:31:04;;;;;;;37.50;23.40;;;18.10;99.90;;;;;;5073113;28;20278;-76
2021/07/27 03:33:30;;;;;;;45.90;24.45;;;18.00;99.90;;;;;;5075503;28;20670;-76
2021/07/27 03:35:56;;;;;;;47.60;25.83;;;18.00;99.90;;;;;;5091113;28;20201;-76
2021/07/27 03:38:22;;;;;;;39.88;23.75;;;18.10;99.90;;;;;;5093420;28;20170;-77
2021/07/27 03:40:47;;;;;;;46.05;23.77;;;18.10;99.90;;;;;;5093082;28;20181;-76
2021/07/27 03:43:13;;;;;;;46.60;25.35;;;18.10;99.90;;;;;;5075680;28;20179;-76
2021/07/27 03:45:38;;;;;;;35.67;22.33;;;18.10;99.90;;;;;;5074152;28;20182;-76
2021/07/27 03:48:04;;;;;;;37.10;22.75;;;18.20;99.90;;;;;;5074295;28;20179;-76
2021/07/27 03:50:30;;;;;;;42.92;23.33;;;18.20;99.90;;;;;;5059052;28;20671;-76
2021/07/27 03:52:55;;;;;;;35.08;21.40;;;18.20;99.90;;;;;;5091530;28;20185;-76
2021/07/27 03:55:21;;;;;;;36.85;21.77;;;18.10;99.90;;;;;;5097196;28;20279;-76
2021/07/27 03:57:47;;;;;;;39.65;22.63;;;18.10;99.90;;;;;;5081799;28;20601;-76
2021/07/27 04:00:13;;;;;;;43.08;22.52;;;18.10;99.90;;;;;;5076559;28;20653;-75
2021/07/27 04:02:39;;;;;;;34.08;21.75;;;18.20;99.90;;;;;;5070197;28;20644;-76
2021/07/27 04:05:06;;;;;;;37.95;21.95;;;18.20;99.90;;;;;;5097089;28;20174;-76
2021/07/27 04:07:31;;;;;;;44.55;22.58;;;18.20;99.90;;;;;;5096159;28;20178;-76
2021/07/27 04:10:00;;;;;;;40.05;22.05;;;18.20;99.90;;;;;;5097277;28;20162;-76
2021/07/27 04:12:26;;;;;;;47.97;22.33;;;18.20;99.90;;;;;;5087011;28;20178;-76
2021/07/27 04:14:52;;;;;;;43.53;21.42;;;18.20;99.90;;;;;;5076507;28;20202;-76
2021/07/27 04:17:19;;;;;;;46.95;21.67;;;18.30;99.90;;;;;;5083751;28;20234;-76
2021/07/27 04:19:48;;;;;;;37.42;22.33;;;18.30;99.90;;;;;;5076501;28;20167;-76
2021/07/27 04:22:14;;;;;;;34.42;20.52;;;18.40;99.90;;;;;;5083985;28;20196;-79
2021/07/27 04:24:39;;;;;;;36.83;21.02;;;18.50;99.90;;;;;;5089503;28;20261;-76
2021/07/27 04:27:05;;;;;;;31.48;20.95;;;18.60;99.90;;;;;;5076321;28;20521;-76
2021/07/27 04:29:31;;;;;;;36.47;22.40;;;18.60;99.90;;;;;;5059260;28;20182;-76
2021/07/27 04:31:57;;;;;;;36.88;20.27;;;18.70;99.90;;;;;;5076240;28;20179;-76
2021/07/27 04:34:22;;;;;;;27.70;20.35;;;18.70;99.90;;;;;;5062181;28;20197;-76
2021/07/27 04:36:48;;;;;;;31.08;20.55;;;18.80;99.90;;;;;;5096481;28;20219;-76
2021/07/27 04:39:14;;;;;;;39.90;20.10;;;18.90;99.90;;;;;;5089731;28;20167;-82
2021/07/27 04:41:40;;;;;;;32.83;19.27;;;19.00;99.90;;;;;;5078585;28;20179;-76
2021/07/27 04:44:06;;;;;;;32.78;18.63;;;19.10;99.90;;;;;;5095908;28;20170;-76
2021/07/27 04:46:34;;;;;;;37.17;19.20;;;19.20;99.90;;;;;;5095895;28;20192;-76
2021/07/27 04:48:59;;;;;;;34.38;18.58;;;19.20;99.90;;;;;;5096107;28;20170;-78
2021/07/27 04:51:25;;;;;;;26.75;17.95;;;19.20;99.90;;;;;;5076523;28;20686;-76
2021/07/27 04:53:58;;;;;;;32.58;18.33;;;19.20;99.90;;;;;;5075906;28;20183;-80
2021/07/27 04:56:23;;;;;;;31.95;18.30;;;19.20;99.90;;;;;;5081605;28;20247;-76
2021/07/27 04:58:49;;;;;;;32.40;18.55;;;19.20;99.90;;;;;;5077504;28;20604;-76
2021/07/27 05:01:14;;;;;;;28.08;17.73;;;19.20;99.90;;;;;;5083426;28;20186;-76
2021/07/27 05:03:40;;;;;;;32.50;17.65;;;19.30;99.90;;;;;;5075698;28;20167;-76
2021/07/27 05:06:09;;;;;;;24.02;16.60;;;19.30;99.90;;;;;;5086640;28;20182;-76
2021/07/27 05:08:34;;;;;;;34.25;17.77;;;19.30;99.90;;;;;;5074187;28;20175;-76
2021/07/27 05:11:01;;;;;;;28.13;18.02;;;19.30;99.90;;;;;;5076660;28;20167;-75
2021/07/27 05:13:27;;;;;;;25.02;16.67;;;19.30;99.90;;;;;;5075521;28;20175;-76
2021/07/27 05:15:53;;;;;;;29.50;17.50;;;19.30;99.90;;;;;;5072156;28;20663;-76
2021/07/27 05:18:19;;;;;;;38.40;18.38;;;19.40;99.90;;;;;;5095661;28;20170;-76
2021/07/27 05:20:45;;;;;;;33.15;17.55;;;19.30;99.90;;;;;;5095950;28;20519;-75
2021/07/27 05:23:11;;;;;;;20.83;16.95;;;19.30;99.90;;;;;;5077706;28;20660;-76
2021/07/27 05:25:36;;;;;;;23.15;16.73;;;19.40;99.90;;;;;;5085592;28;20190;-76
2021/07/27 05:28:02;;;;;;;28.52;17.73;;;19.50;99.90;;;;;;5093733;28;20261;-76
2021/07/27 05:30:28;;;;;;;40.05;17.70;;;19.50;99.90;;;;;;5095671;28;20174;-76
2021/07/27 05:32:55;;;;;;;27.10;16.17;;;19.50;99.90;;;;;;5083180;28;20694;-76
2021/07/27 05:35:21;;;;;;;28.58;16.98;;;19.70;99.90;;;;;;5085443;28;20201;-76
2021/07/27 05:37:47;;;;;;;35.83;16.52;;;19.70;99.90;;;;;;5077322;28;20230;-76
2021/07/27 05:40:13;;;;;;;24.45;17.00;;;19.80;99.90;;;;;;5095275;28;20536;-76
2021/07/27 05:42:39;;;;;;;24.13;16.98;;;20.00;99.90;;;;;;5094129;28;20257;-76
2021/07/27 05:45:05;;;;;;;29.92;17.02;;;20.10;99.90;;;;;;5086576;28;20179;-79
2021/07/27 05:47:30;;;;;;;20.52;15.60;;;20.20;99.90;;;;;;5074776;28;20181;-76
2021/07/27 05:49:56;;;;;;;30.77;16.52;;;20.20;99.90;;;;;;5074648;28;20175;-76
2021/07/27 05:52:21;;;;;;;26.55;16.40;;;20.30;99.90;;;;;;5074691;28;20174;-76
2021/07/27 05:54:47;;;;;;;21.15;16.48;;;20.30;99.90;;;;;;5081184;28;20749;-76
2021/07/27 05:57:14;;;;;;;33.97;16.58;;;20.30;99.90;;;;;;5067177;28;20167;-78
2021/07/27 05:59:42;;;;;;;26.75;17.65;;;20.30;99.90;;;;;;5056685;28;20231;-77
2021/07/27 06:02:08;;;;;;;23.60;17.70;;;20.20;99.90;;;;;;5077306;28;20231;-76
2021/07/27 06:04:34;;;;;;;27.50;16.92;;;20.10;99.90;;;;;;5085707;28;20625;-76
2021/07/27 06:07:01;;;;;;;28.92;16.60;;;20.10;99.90;;;;;;5082265;28;20200;-76
2021/07/27 06:09:26;;;;;;;32.88;18.67;;;20.10;99.90;;;;;;5076578;28;20557;-76
2021/07/27 06:11:52;;;;;;;29.67;16.83;;;20.00;99.90;;;;;;5075985;28;20188;-76
2021/07/27 06:14:17;;;;;;;28.27;17.52;;;20.10;99.90;;;;;;5074893;28;20170;-78
2021/07/27 06:16:43;;;;;;;26.92;16.45;;;20.20;99.90;;;;;;5079700;28;20658;-77
2021/07/27 06:19:09;;;;;;;23.88;17.02;;;20.50;99.90;;;;;;5094401;28;20292;-77
2021/07/27 06:21:40;;;;;;;27.85;15.68;;;20.90;99.90;;;;;;5076212;28;20639;-76
2021/07/27 06:24:06;;;;;;;27.85;14.82;;;21.70;99.90;;;;;;5094363;28;20174;-76
2021/07/27 06:26:32;;;;;;;27.85;13.45;;;22.80;99.90;;;;;;5061445;28;20529;-76
2021/07/27 06:28:58;;;;;;;21.27;13.43;;;23.50;99.90;;;;;;5056507;28;20178;-76
2021/07/27 06:31:24;;;;;;;20.65;13.85;;;23.50;99.90;;;;;;5056159;28;20258;-76
2021/07/27 06:33:50;;;;;;;20.20;14.18;;;23.30;99.90;;;;;;5073975;28;20262;-78
2021/07/27 06:36:15;;;;;;;22.67;16.15;;;23.10;99.90;;;;;;5071017;28;20189;-76
2021/07/27 06:38:42;;;;;;;23.23;16.42;;;22.90;99.90;;;;;;5093798;28;20648;-76
2021/07/27 06:41:08;;;;;;;23.52;15.98;;;22.90;99.90;;;;;;5094134;28;20214;-77
2021/07/27 06:43:35;;;;;;;20.38;15.60;;;23.10;99.90;;;;;;5094436;28;20166;-76
2021/07/27 06:46:01;;;;;;;20.58;14.48;;;23.90;99.90;;;;;;5062658;28;20174;-76
2021/07/27 06:48:27;;;;;;;24.13;13.23;;;25.10;99.90;;;;;;5056136;28;20174;-76
2021/07/27 06:50:53;;;;;;;21.35;12.65;;;26.20;99.90;;;;;;5074106;28;20174;-76
2021/07/27 06:53:19;;;;;;;20.38;12.90;;;27.70;99.90;;;;;;5073966;28;20163;-80
2021/07/27 06:55:45;;;;;;;18.85;13.27;;;29.20;99.90;;;;;;5085330;28;20570;-77
2021/07/27 06:58:12;;;;;;;28.33;13.80;;;29.10;99.90;;;;;;5093872;28;20193;-75
2021/07/27 07:00:41;;;;;;;14.30;12.40;;;28.90;99.90;;;;;;5094324;28;20166;-75
2021/07/27 07:03:07;;;;;;;18.70;13.07;;;28.40;99.90;;;;;;5059555;28;20575;-76
2021/07/27 07:05:34;;;;;;;15.50;12.70;;;27.60;99.90;;;;;;5075922;28;20206;-76
2021/07/27 07:08:00;;;;;;;16.35;13.38;;;26.20;99.90;;;;;;5071264;28;20662;-75
2021/07/27 07:10:26;;;;;;;26.63;13.27;;;25.20;99.90;;;;;;5093933;28;20162;-76
2021/07/27 07:12:51;;;;;;;19.77;13.93;;;24.40;99.90;;;;;;5093697;28;20529;-76
2021/07/27 07:15:17;;;;;;;21.25;14.93;;;23.70;99.90;;;;;;5067345;28;20729;-75
2021/07/27 07:17:43;;;;;;;20.30;15.15;;;23.20;99.90;;;;;;5074342;28;20206;-80
2021/07/27 07:20:10;;;;;;;20.58;14.20;;;23.00;99.90;;;;;;5073194;28;20652;-75
2021/07/27 07:22:35;;;;;;;25.92;15.73;;;22.80;99.90;;;;;;5054982;28;20171;-75
2021/07/27 07:25:02;;;;;;;26.30;14.80;;;22.70;99.90;;;;;;5073612;28;20658;-76
2021/07/27 07:27:27;;;;;;;29.58;14.70;;;22.80;99.90;;;;;;5085856;28;20558;-76
2021/07/27 07:29:54;;;;;;;22.90;13.68;;;23.20;99.90;;;;;;5093643;28;20253;-76
2021/07/27 07:32:20;;;;;;;16.30;13.32;;;23.40;99.90;;;;;;5093485;28;20165;-77
2021/07/27 07:34:46;;;;;;;17.45;12.98;;;23.80;99.90;;;;;;5090064;28;20202;-76
2021/07/27 07:37:11;;;;;;;15.18;13.65;;;24.20;99.90;;;;;;5074270;28;20190;-76
2021/07/27 07:39:37;;;;;;;22.27;13.57;;;24.20;99.90;;;;;;5073222;28;20171;-75
2021/07/27 07:42:04;;;;;;;15.00;12.60;;;23.90;99.90;;;;;;5055057;28;20174;-76
2021/07/27 07:44:29;;;;;;;17.95;13.27;;;23.60;99.90;;;;;;5073426;28;20175;-76
2021/07/27 07:46:55;;;;;;;17.83;13.73;;;23.30;99.90;;;;;;5074275;28;20178;-76
2021/07/27 07:49:21;;;;;;;25.85;15.07;;;23.00;99.90;;;;;;5073160;28;20235;-76
2021/07/27 07:51:48;;;;;;;23.73;13.32;;;22.70;99.90;;;;;;5073181;28;20174;-76
2021/07/27 07:54:17;;;;;;;21.10;14.07;;;22.60;99.90;;;;;;5072924;28;20655;-76
2021/07/27 07:56:46;;;;;;;25.55;14.65;;;22.50;99.90;;;;;;5090079;28;20186;-76
2021/07/27 07:59:13;;;;;;;17.65;13.75;;;22.70;99.90;;;;;;5093202;28;20248;-76
2021/07/27 08:01:44;;;;;;;17.30;13.70;;;22.70;99.90;;;;;;5093240;28;20172;-76
2021/07/27 08:04:09;;;;;;;28.40;14.77;;;22.80;99.90;;;;;;5075968;28;20159;-76
2021/07/27 08:06:35;;;;;;;29.58;15.25;;;22.90;99.90;;;;;;5086118;28;20224;-77
2021/07/27 08:09:01;;;;;;;20.05;15.05;;;23.00;99.90;;;;;;5054979;28;20178;-76
2021/07/27 08:11:26;;;;;;;18.40;13.90;;;23.20;99.90;;;;;;5038617;28;20171;-76
2021/07/27 08:13:55;;;;;;;28.17;14.05;;;23.20;99.90;;;;;;5054797;28;20174;-77
2021/07/27 08:16:21;;;;;;;19.55;13.90;;;23.10;99.90;;;;;;5074236;28;20194;-77
2021/07/27 08:18:47;;;;;;;20.95;14.98;;;23.20;99.90;;;;;;5072876;28;20167;-76
2021/07/27 08:21:14;;;;;;;16.63;14.85;;;23.10;99.90;;;;;;5072827;28;20228;-77
2021/07/27 08:23:44;;;;;;;15.60;14.13;;;23.00;99.90;;;;;;5072883;28;20182;-76
2021/07/27 08:26:11;;;;;;;34.28;15.25;;;22.80;99.90;;;;;;5077367;28;20166;-78
2021/07/27 08:28:36;;;;;;;22.48;15.48;;;22.60;99.90;;;;;;5092476;28;20174;-77
2021/07/27 08:31:02;;;;;;;23.92;14.43;;;22.40;99.90;;;;;;5065411;28;20205;-76
2021/07/27 08:33:28;;;;;;;25.08;15.40;;;22.10;99.90;;;;;;5063021;28;20194;-76
2021/07/27 08:35:53;;;;;;;20.17;15.13;;;21.80;99.90;;;;;;5059336;28;20249;-76
2021/07/27 08:38:19;;;;;;;23.63;15.00;;;21.50;99.90;;;;;;5078473;28;20363;-76
2021/07/27 08:40:48;;;;;;;20.77;15.30;;;21.30;99.90;;;;;;5077029;28;20170;-76
2021/07/27 08:43:16;;;;;;;26.38;16.20;;;21.10;99.90;;;;;;5058324;28;20197;-77
2021/07/27 08:45:43;;;;;;;23.20;15.68;;;20.90;99.90;;;;;;5058022;28;20183;-77
2021/07/27 08:48:09;;;;;;;25.42;16.05;;;20.90;99.90;;;;;;5076052;28;20178;-80
2021/07/27 08:50:35;;;;;;;26.45;16.02;;;20.90;99.90;;;;;;5066673;28;20174;-79
2021/07/27 08:53:00;;;;;;;21.50;16.15;;;20.80;99.90;;;;;;5077644;28;20221;-77
2021/07/27 08:55:26;;;;;;;20.67;16.30;;;21.00;99.90;;;;;;5077758;28;20194;-78
2021/07/27 08:57:56;;;;;;;25.27;15.63;;;21.10;99.90;;;;;;5060971;28;20205;-77
2021/07/27 09:00:27;;;;;;;29.80;15.90;;;21.20;99.90;;;;;;5089712;28;20265;-77
2021/07/27 09:02:53;;;;;;;22.15;16.10;;;21.30;99.90;;;;;;5097942;28;20166;-77
2021/07/27 09:05:20;;;;;;;31.10;16.10;;;21.50;99.90;;;;;;5084986;28;20268;-78
2021/07/27 09:07:46;;;;;;;20.05;15.27;;;21.80;99.90;;;;;;5075419;28;20249;-78
2021/07/27 09:10:12;;;;;;;26.58;15.52;;;22.10;99.90;;;;;;5063277;28;20170;-77
2021/07/27 09:12:49;;;;;;;22.75;15.52;;;22.40;99.90;;;;;;5058858;28;20178;-79
2021/07/27 09:15:15;;;;;;;23.95;14.50;;;22.40;99.90;;;;;;5075947;28;20183;-77
2021/07/27 09:17:48;;;;;;;21.88;14.77;;;22.60;99.90;;;;;;5065486;28;20187;-76
2021/07/27 09:20:31;;;;;;;26.60;13.93;;;22.60;99.90;;;;;;5077021;28;20205;-77
2021/07/27 09:22:58;;;;;;;27.45;15.32;;;22.70;99.90;;;;;;5077667;28;20155;-75
2021/07/27 09:25:28;;;;;;;26.40;15.13;;;22.80;99.90;;;;;;5058866;28;20613;-76
2021/07/27 09:28:10;;;;;;;21.88;14.57;;;23.00;99.90;;;;;;5076172;28;20253;-76
2021/07/27 09:30:38;;;;;;;19.10;14.00;;;23.00;99.90;;;;;;5057606;28;20186;-76
2021/07/27 09:33:06;;;;;;;21.75;13.85;;;23.10;99.90;;;;;;5075840;28;20175;-76
2021/07/27 09:35:32;;;;;;;18.98;13.25;;;23.40;99.90;;;;;;5075604;28;20675;-77
2021/07/27 09:38:06;;;;;;;20.73;13.90;;;23.70;99.90;;;;;;5076135;28;20228;-78
2021/07/27 09:40:35;;;;;;;22.90;13.65;;;24.20;99.90;;;;;;5075454;28;20154;-77
2021/07/27 09:43:01;;;;;;;21.77;12.18;;;24.80;99.90;;;;;;5091715;28;20185;-76
2021/07/27 09:45:28;;;;;;;20.05;11.40;;;25.90;99.90;;;;;;5075738;28;20174;-76
2021/07/27 09:47:55;;;;;;;21.08;10.80;;;27.00;99.90;;;;;;5095106;28;20173;-76
2021/07/27 09:50:25;;;;;;;13.10;10.90;;;28.00;99.90;;;;;;5068709;28;20183;-76
2021/07/27 09:52:51;;;;;;;18.60;9.95;;;28.80;99.90;;;;;;5074446;28;20210;-76
2021/07/27 09:55:27;;;;;;;19.73;10.38;;;29.20;99.90;;;;;;5074815;28;20220;-76
2021/07/27 09:57:52;;;;;;;13.70;8.77;;;30.40;99.90;;;;;;5057074;28;20182;-75
2021/07/27 10:00:23;;;;;;;16.05;9.52;;;30.60;99.90;;;;;;5058197;28;20194;-77
2021/07/27 10:02:50;;;;;;;16.50;9.57;;;30.00;99.90;;;;;;5089368;28;20189;-77
2021/07/27 10:05:22;;;;;;;9.27;8.05;;;29.80;99.90;;;;;;5094718;28;20659;-77
2021/07/27 10:07:55;;;;;;;9.40;8.18;;;30.00;99.90;;;;;;5084659;28;20506;-77
2021/07/27 10:10:43;;;;;;;10.90;9.48;;;30.10;99.90;;;;;;5078016;28;20178;-80
2021/07/27 10:13:12;;;;;;;15.27;8.60;;;29.90;99.90;;;;;;5056213;28;20170;-81
2021/07/27 10:15:39;;;;;;;11.57;8.15;;;29.40;99.90;;;;;;5074567;28;20633;-80
2021/07/27 10:18:05;;;;;;;17.30;8.13;;;29.20;99.90;;;;;;5073900;28;20266;-80
2021/07/27 10:20:31;;;;;;;14.48;8.32;;;29.40;99.90;;;;;;5074569;28;20297;-81
2021/07/27 10:22:56;;;;;;;12.40;8.48;;;29.80;99.90;;;;;;5056094;28;20185;-82
2021/07/27 10:25:24;;;;;;;12.75;8.05;;;29.40;99.90;;;;;;5074353;28;20186;-81
2021/07/27 10:27:52;;;;;;;27.67;9.15;;;29.00;99.90;;;;;;5074453;28;20205;-80
2021/07/27 10:30:31;;;;;;;12.68;8.98;;;28.30;99.90;;;;;;5056433;28;20191;-79
2021/07/27 10:32:57;;;;;;;16.55;8.18;;;28.10;99.90;;;;;;5090061;28;20539;-83
2021/07/27 10:35:33;;;;;;;9.00;8.10;;;28.30;99.90;;;;;;5093897;28;20194;-79
2021/07/27 10:38:12;;;;;;;12.57;9.23;;;28.70;99.90;;;;;;5088225;28;20212;-78
2021/07/27 10:40:39;;;;;;;12.27;8.48;;;28.80;99.90;;;;;;5078391;28;20174;-77
2021/07/27 10:43:07;;;;;;;11.45;8.60;;;29.00;99.90;;;;;;5081391;28;20192;-76
2021/07/27 10:45:33;;;;;;;14.27;9.38;;;29.30;99.90;;;;;;5091026;28;20178;-77
2021/07/27 10:47:59;;;;;;;10.15;8.98;;;29.60;99.90;;;;;;5093340;28;20217;-77
2021/07/27 10:50:32;;;;;;;11.13;7.80;;;29.90;99.90;;;;;;5093559;28;20209;-77
2021/07/27 10:53:06;;;;;;;23.77;9.30;;;30.20;99.90;;;;;;5071058;28;20165;-76
2021/07/27 10:55:37;;;;;;;13.38;8.85;;;30.10;99.90;;;;;;5073518;28;20640;-77
2021/07/27 10:58:06;;;;;;;11.43;7.97;;;29.90;99.90;;;;;;5075069;28;20656;-77
2021/07/27 11:00:34;;;;;;;9.27;7.88;;;29.20;99.90;;;;;;5079763;28;20261;-78
2021/07/27 11:03:00;;;;;;;8.75;7.85;;;28.50;99.90;;;;;;5058114;28;20617;-78
2021/07/27 11:05:27;;;;;;;10.27;7.85;;;28.00;99.90;;;;;;5080548;28;20186;-77
2021/07/27 11:07:53;;;;;;;14.30;8.35;;;27.50;99.90;;;;;;5092790;28;20534;-77
2021/07/27 11:10:23;;;;;;;12.52;7.70;;;27.30;99.90;;;;;;5092710;28;20186;-77
2021/07/27 11:12:50;;;;;;;13.55;8.15;;;27.70;99.90;;;;;;5090027;28;20277;-77
2021/07/27 11:15:21;;;;;;;8.68;7.78;;;28.40;99.90;;;;;;5073324;28;20195;-77
2021/07/27 11:17:58;;;;;;;11.35;8.40;;;28.60;99.90;;;;;;5055837;28;20624;-78
2021/07/27 11:20:31;;;;;;;9.75;8.23;;;29.20;99.90;;;;;;5084405;28;20181;-77
2021/07/27 11:23:09;;;;;;;16.50;8.25;;;29.20;99.90;;;;;;5091646;28;20609;-76
2021/07/27 11:25:35;;;;;;;13.07;8.80;;;28.80;99.90;;;;;;5076504;28;20265;-78
2021/07/27 11:28:14;;;;;;;10.43;9.32;;;28.10;99.90;;;;;;5087262;28;20257;-77
2021/07/27 11:30:42;;;;;;;17.27;9.50;;;27.60;99.90;;;;;;5093851;28;20639;-76
2021/07/27 11:33:09;;;;;;;13.65;9.85;;;27.70;99.90;;;;;;5078456;28;20193;-79
2021/07/27 11:35:42;;;;;;;19.65;11.25;;;27.60;99.90;;;;;;5075658;28;20208;-79
2021/07/27 11:38:08;;;;;;;15.50;10.73;;;27.20;99.90;;;;;;5073122;28;20224;-75
2021/07/27 11:40:35;;;;;;;19.20;10.73;;;26.90;99.90;;;;;;5075757;28;20170;-77
2021/07/27 11:43:06;;;;;;;16.05;9.32;;;26.80;99.90;;;;;;5055612;28;20185;-76
2021/07/27 11:45:37;;;;;;;14.52;9.52;;;27.20;99.90;;;;;;5090026;28;20314;-77
2021/07/27 11:48:04;;;;;;;15.00;9.80;;;27.90;99.90;;;;;;5094205;28;20151;-77
2021/07/27 11:50:35;;;;;;;14.60;10.05;;;28.40;99.90;;;;;;5093403;28;20231;-76
2021/07/27 11:53:03;;;;;;;16.80;10.95;;;29.50;99.90;;;;;;5075134;28;20178;-77
2021/07/27 11:55:31;;;;;;;12.13;9.45;;;30.00;99.90;;;;;;5093013;28;20204;-75
2021/07/27 11:57:56;;;;;;;13.27;10.23;;;29.60;99.90;;;;;;5094468;28;20216;-77
2021/07/27 12:00:22;;;;;;;14.43;9.77;;;28.80;99.90;;;;;;5093288;28;20633;-76
2021/07/27 12:02:48;;;;;;;25.73;11.13;;;28.00;99.90;;;;;;5085948;28;20205;-78
2021/07/27 12:05:14;;;;;;;17.08;11.85;;;27.50;99.90;;;;;;5057002;28;20186;-78
2021/07/27 12:07:39;;;;;;;14.57;11.10;;;26.80;99.90;;;;;;5092868;28;20248;-79
2021/07/27 12:10:07;;;;;;;22.85;10.93;;;26.60;99.90;;;;;;5096531;28;20173;-78
2021/07/27 12:12:32;;;;;;;13.07;10.32;;;27.40;99.90;;;;;;5089420;28;20166;-77
2021/07/27 12:14:59;;;;;;;14.60;10.63;;;28.10;99.90;;;;;;5077909;28;20271;-77
2021/07/27 12:17:25;;;;;;;15.63;10.05;;;29.00;99.90;;;;;;5076746;28;20177;-79
2021/07/27 12:19:51;;;;;;;13.15;8.80;;;30.00;99.90;;;;;;5077780;28;20191;-78
2021/07/27 12:22:17;;;;;;;9.18;7.70;;;29.70;99.90;;;;;;5078135;28;20170;-78
2021/07/27 12:24:42;;;;;;;8.38;7.65;;;28.80;99.90;;;;;;5080541;28;20680;-77
2021/07/27 12:27:09;;;;;;;15.90;8.27;;;27.90;99.90;;;;;;5078563;28;20193;-77
2021/07/27 12:29:35;;;;;;;15.05;8.00;;;27.40;99.90;;;;;;5091406;28;20201;-77
2021/07/27 12:32:01;;;;;;;14.98;8.52;;;27.30;99.90;;;;;;5094776;28;20182;-78
2021/07/27 12:34:26;;;;;;;12.93;7.57;;;27.00;99.90;;;;;;5076588;28;20174;-77
2021/07/27 12:36:54;;;;;;;7.63;6.55;;;27.00;99.90;;;;;;5059156;28;20281;-80
2021/07/27 12:39:20;;;;;;;9.93;6.90;;;26.70;99.90;;;;;;5059822;28;20170;-77
2021/07/27 12:41:46;;;;;;;7.55;6.68;;;26.40;99.90;;;;;;5079077;28;20525;-77
2021/07/27 12:44:13;;;;;;;13.13;6.25;;;26.00;99.90;;;;;;5074647;28;20178;-77
2021/07/27 12:46:39;;;;;;;9.15;6.20;;;25.70;99.90;;;;;;5096562;28;20178;-78
2021/07/27 12:49:05;;;;;;;9.60;5.97;;;25.50;99.90;;;;;;5078444;28;20566;-77